Time;durP1;ratioP1;P1;durP2;ratioP2;P2;SDS_P1;SDS_P2;PMS_P1;PMS_P2;Temp;Humidity;BMP_temperature;BMP_pressure;BME280_temperature;BME280_humidity;BME280_pressure;Samples;Min_cycle;Max_cycle;Signal;HPM_P1;HPM_P2
2022/11/04 00:01:47;;;;;;;10.82;7.47;;;;;;;13.61;78.81;94543.03;5053055;28;20648;-60
2022/11/04 00:04:15;;;;;;;12.27;7.05;;;;;;;13.69;78.02;94553.28;5035101;28;20224;-59
2022/11/04 00:06:41;;;;;;;14.00;7.57;;;;;;;13.68;78.07;94554.22;5052903;28;20637;-60
2022/11/04 00:09:10;;;;;;;11.13;7.33;;;;;;;13.74;78.70;94554.44;5053098;28;20236;-59
2022/11/04 00:14:19;;;;;;;13.05;8.15;;;;;;;13.73;78.19;94552.84;5052881;28;20295;-59
2022/11/04 00:28:41;;;;;;;14.07;8.52;;;;;;;13.77;77.68;94568.66;5053073;28;20236;-60
2022/11/04 00:30:26;;;;;;;13.80;8.00;;;;;;;13.86;77.09;94573.66;5052776;28;20236;-60
2022/11/04 00:35:35;;;;;;;12.48;6.85;;;;;;;13.93;77.31;94569.56;5052587;28;20706;-61
2022/11/04 00:38:01;;;;;;;11.70;8.02;;;;;;;13.77;78.41;94553.34;5052468;28;20190;-62
2022/11/04 00:40:26;;;;;;;13.30;8.10;;;;;;;13.76;78.67;94541.50;5052378;28;20292;-62
2022/11/04 00:42:51;;;;;;;14.77;7.43;;;;;;;13.91;77.24;94570.66;5034459;28;20209;-62
2022/11/04 00:45:17;;;;;;;14.90;7.75;;;;;;;13.89;77.68;94568.25;5052539;28;20225;-62
2022/11/04 00:47:42;;;;;;;13.07;8.05;;;;;;;13.64;78.82;94538.41;5052099;28;20532;-62
2022/11/04 00:50:08;;;;;;;22.20;8.02;;;;;;;13.60;78.52;94554.97;5052835;28;20237;-62
2022/11/04 00:52:33;;;;;;;17.23;8.90;;;;;;;13.48;78.61;94530.66;5052330;28;20588;-60
2022/11/04 00:54:59;;;;;;;11.48;7.85;;;;;;;13.60;78.99;94534.56;5052308;28;20759;-61
2022/11/04 00:57:24;;;;;;;14.53;8.27;;;;;;;13.49;79.03;94527.16;5052556;28;20182;-61
2022/11/04 00:59:49;;;;;;;16.23;8.00;;;;;;;13.56;78.73;94525.59;5052271;28;20206;-61
2022/11/04 01:02:15;;;;;;;16.60;8.13;;;;;;;13.59;78.05;94540.63;5034234;28;20192;-61
2022/11/04 01:04:40;;;;;;;13.67;7.67;;;;;;;13.27;80.25;94489.34;5051978;28;20293;-61
2022/11/04 01:07:05;;;;;;;14.80;8.77;;;;;;;13.15;81.19;94491.34;5051976;28;20630;-62
2022/11/04 01:09:31;;;;;;;12.35;8.20;;;;;;;13.23;80.75;94499.03;5052136;28;20553;-62
2022/11/04 01:11:56;;;;;;;15.55;7.85;;;;;;;13.44;80.01;94517.38;5051780;28;20200;-61
2022/11/04 01:14:22;;;;;;;12.63;8.00;;;;;;;13.67;77.97;94558.56;5051678;28;20209;-61
2022/11/04 01:16:50;;;;;;;14.07;8.37;;;;;;;13.39;78.98;94514.47;5051872;28;20232;-58
2022/11/04 01:19:16;;;;;;;14.07;8.53;;;;;;;13.45;78.67;94524.09;5033812;28;20239;-63
2022/11/04 01:21:42;;;;;;;15.03;8.40;;;;;;;13.46;78.59;94530.81;5051642;28;20219;-60
2022/11/04 01:24:07;;;;;;;13.53;8.57;;;;;;;13.53;78.88;94520.00;5033749;28;20210;-60
2022/11/04 01:26:33;;;;;;;13.67;8.80;;;;;;;13.62;78.53;94524.19;5033621;28;20272;-59
2022/11/04 01:28:59;;;;;;;12.23;8.53;;;;;;;13.40;79.41;94508.44;5051408;28;20250;-61
2022/11/04 01:31:29;;;;;;;15.37;8.67;;;;;;;13.39;78.88;94506.81;5051569;28;20215;-60
2022/11/04 01:33:56;;;;;;;11.83;8.00;;;;;;;13.37;79.69;94498.50;5033595;28;20202;-60
2022/11/04 01:36:22;;;;;;;13.00;7.83;;;;;;;13.16;81.07;94467.44;5051627;28;20643;-60
2022/11/04 01:38:48;;;;;;;12.73;8.10;;;;;;;13.28;80.31;94489.19;5032661;28;20193;-60
2022/11/04 01:41:22;;;;;;;11.90;8.53;;;;;;;13.26;80.57;94487.75;5051352;28;20823;-60
2022/11/04 01:43:51;;;;;;;16.67;9.23;;;;;;;13.27;80.83;94479.94;5051336;28;20199;-62
2022/11/04 01:46:48;;;;;;;18.70;8.47;;;;;;;13.28;81.13;94481.53;5051039;28;20680;-60
2022/11/04 01:49:38;;;;;;;14.93;8.77;;;;;;;13.51;80.29;94511.69;5051375;28;20217;-60
2022/11/04 01:52:29;;;;;;;12.43;8.90;;;;;;;13.40;79.71;94499.97;5051304;28;20197;-61
2022/11/04 01:54:58;;;;;;;13.32;9.25;;;;;;;13.29;80.44;94478.03;5033513;28;20290;-61
2022/11/04 01:57:35;;;;;;;16.07;8.67;;;;;;;13.39;80.29;94488.94;5051146;28;20660;-60
2022/11/04 02:00:05;;;;;;;17.60;9.23;;;;;;;13.19;82.09;94461.22;5051717;28;20239;-61
2022/11/04 02:02:31;;;;;;;13.57;8.63;;;;;;;13.17;82.02;94458.03;5051206;28;20185;-61
2022/11/04 02:04:57;;;;;;;17.53;8.97;;;;;;;13.13;82.70;94459.28;5032929;28;20236;-59
2022/11/04 02:07:23;;;;;;;16.07;8.50;;;;;;;13.14;83.02;94446.34;5051169;28;20322;-59
2022/11/04 02:09:49;;;;;;;14.73;8.97;;;;;;;13.10;82.95;94454.47;5051279;28;20266;-60
2022/11/04 02:14:58;;;;;;;14.30;8.32;;;;;;;13.20;82.54;94461.06;5051106;28;20291;-61
2022/11/04 02:17:42;;;;;;;13.23;9.30;;;;;;;13.38;80.87;94481.44;5032951;28;20193;-61
2022/11/04 02:20:17;;;;;;;11.93;8.13;;;;;;;13.42;80.98;94478.44;5051122;28;20205;-62
2022/11/04 02:23:12;;;;;;;14.43;8.97;;;;;;;12.97;83.40;94439.50;5050957;28;20189;-62
2022/11/04 02:25:56;;;;;;;16.70;9.53;;;;;;;12.92;83.45;94449.38;5050711;28;20213;-61
2022/11/04 02:28:24;;;;;;;13.97;9.67;;;;;;;12.65;85.43;94411.22;5050734;28;20731;-61
2022/11/04 02:31:26;;;;;;;14.77;9.33;;;;;;;12.09;87.01;94410.75;5050565;28;20209;-62
2022/11/04 02:33:58;;;;;;;16.60;8.83;;;;;;;11.74;90.20;94445.41;5050730;28;20270;-62
2022/11/04 02:36:46;;;;;;;17.37;9.53;;;;;;;12.27;87.61;94459.97;5050700;28;20181;-59
2022/11/04 02:39:22;;;;;;;19.27;8.47;;;;;;;12.44;85.73;94456.63;5050769;28;20205;-59
2022/11/04 02:41:56;;;;;;;13.23;9.00;;;;;;;12.25;87.77;94449.13;5050626;28;20264;-61
2022/11/04 02:44:34;;;;;;;17.37;9.57;;;;;;;12.08;89.45;94455.78;5050942;28;20334;-62
2022/11/04 02:47:03;;;;;;;24.23;9.27;;;;;;;12.39;86.82;94467.25;5050490;28;20188;-61
2022/11/04 02:49:44;;;;;;;18.00;9.97;;;;;;;12.39;86.27;94456.25;5051117;28;20228;-62
2022/11/04 02:52:15;;;;;;;17.70;9.73;;;;;;;12.13;89.35;94448.53;5054069;28;20718;-61
2022/11/04 02:54:48;;;;;;;14.97;9.23;;;;;;;12.16;89.09;94444.91;5054017;28;20209;-61
2022/11/04 02:57:22;;;;;;;18.70;9.10;;;;;;;12.21;89.58;94458.00;5054157;28;20260;-60
2022/11/04 02:59:53;;;;;;;19.57;10.13;;;;;;;12.15;89.42;94449.19;5053866;28;20259;-60
2022/11/04 03:02:25;;;;;;;19.03;9.80;;;;;;;12.13;90.27;94450.28;5053831;28;20648;-59
2022/11/04 03:04:53;;;;;;;17.23;9.63;;;;;;;12.11;90.35;94449.63;5054130;28;20761;-62
2022/11/04 03:07:23;;;;;;;17.57;9.20;;;;;;;12.11;90.62;94449.63;5053902;28;20266;-58
2022/11/04 03:09:55;;;;;;;15.23;10.03;;;;;;;12.14;90.43;94456.97;5054004;28;20707;-61
2022/11/04 03:12:27;;;;;;;15.67;9.97;;;;;;;12.44;88.20;94474.47;5053833;28;20181;-60
2022/11/04 03:15:00;;;;;;;18.00;10.97;;;;;;;12.31;88.82;94458.72;5035888;28;20217;-60
2022/11/04 03:17:31;;;;;;;16.63;9.67;;;;;;;12.08;90.26;94448.16;5053692;28;20185;-61
2022/11/04 03:19:59;;;;;;;15.95;10.60;;;;;;;11.87;92.14;94449.34;5053583;28;20217;-61
2022/11/04 03:22:29;;;;;;;18.53;11.77;;;;;;;11.90;92.39;94456.72;5053629;28;20186;-59
2022/11/04 03:24:55;;;;;;;18.63;10.97;;;;;;;11.96;91.79;94459.47;5035831;28;20225;-60
2022/11/04 03:28:00;;;;;;;18.80;11.27;;;;;;;11.75;92.66;94458.94;5053858;28;20270;-61
2022/11/04 03:30:36;;;;;;;24.50;10.63;;;;;;;12.19;89.11;94480.28;5053968;28;20228;-60
2022/11/04 03:33:27;;;;;;;18.57;11.07;;;;;;;11.90;90.81;94462.59;5036931;28;20200;-62
2022/11/04 03:35:53;;;;;;;21.03;10.50;;;;;;;11.86;91.82;94460.50;5053625;28;20243;-59
2022/11/04 03:38:21;;;;;;;15.97;10.17;;;;;;;12.22;89.35;94477.44;5035430;28;20194;-60
2022/11/04 03:40:46;;;;;;;21.80;11.60;;;;;;;11.87;91.45;94455.25;5035690;28;20213;-59
2022/11/04 03:43:26;;;;;;;23.10;10.80;;;;;;;11.78;92.56;94454.34;5053247;28;20189;-60
2022/11/04 03:45:53;;;;;;;14.33;9.63;;;;;;;11.75;93.52;94457.22;5053172;28;20694;-60
2022/11/04 03:48:18;;;;;;;15.13;10.27;;;;;;;11.61;94.44;94455.09;5053208;28;20227;-60
2022/11/04 03:50:46;;;;;;;19.90;10.73;;;;;;;11.35;95.95;94454.09;5053183;28;20782;-62
2022/11/04 03:53:15;;;;;;;15.37;10.50;;;;;;;11.46;94.56;94459.03;5053035;28;20559;-61
2022/11/04 03:55:40;;;;;;;20.33;10.23;;;;;;;11.20;96.55;94455.50;5053051;28;20208;-62
2022/11/04 03:58:30;;;;;;;22.60;10.73;;;;;;;11.51;93.98;94468.81;5053303;28;20182;-60
2022/11/04 04:01:07;;;;;;;19.17;10.30;;;;;;;11.50;93.38;94459.53;5052527;28;20196;-58
2022/11/04 04:03:45;;;;;;;18.63;11.40;;;;;;;11.74;91.78;94470.06;5052879;28;20318;-59
2022/11/04 04:06:23;;;;;;;18.53;11.13;;;;;;;11.65;92.33;94458.16;5053048;28;20300;-59
2022/11/04 04:08:58;;;;;;;19.30;10.53;;;;;;;11.61;93.19;94455.09;5052723;28;20189;-59
2022/11/04 04:11:35;;;;;;;19.63;10.30;;;;;;;11.51;93.90;94446.66;5052981;28;20266;-60
2022/11/04 04:14:09;;;;;;;19.70;12.00;;;;;;;11.51;94.67;94454.31;5052844;28;20219;-61
2022/11/04 04:16:41;;;;;;;18.40;11.13;;;;;;;11.49;94.62;94456.19;5053371;28;20663;-58
2022/11/04 04:19:13;;;;;;;22.20;10.83;;;;;;;11.56;93.41;94453.91;5052868;28;20213;-61
2022/11/04 04:21:57;;;;;;;17.00;10.63;;;;;;;11.51;94.84;94456.06;5052680;28;20286;-59
2022/11/04 04:27:30;;;;;;;19.53;11.63;;;;;;;11.84;92.79;94475.13;5052912;28;20185;-60
2022/11/04 04:30:08;;;;;;;22.27;12.67;;;;;;;11.45;97.32;94426.09;5052420;28;20205;-60
2022/11/04 04:32:42;;;;;;;15.57;10.90;;;;;;;11.44;97.28;94450.72;5034545;28;20197;-59
2022/11/04 04:44:58;;;;;;;26.37;12.17;;;;;;;11.44;98.16;94453.28;5052553;28;20666;-59
2022/11/04 04:46:25;;;;;;;20.77;13.13;;;;;;;11.42;99.76;94456.91;5052117;28;20259;-59
2022/11/04 04:48:50;;;;;;;24.67;14.47;;;;;;;11.17;100.00;94455.75;5052293;28;20751;-59
2022/11/04 04:51:16;;;;;;;18.87;13.20;;;;;;;11.09;100.00;94458.19;5052168;28;20196;-58
2022/11/04 04:53:41;;;;;;;22.60;13.50;;;;;;;11.33;100.00;94461.06;5052325;28;20209;-62
2022/11/04 04:56:07;;;;;;;23.63;14.23;;;;;;;11.23;100.00;94459.53;5034427;28;20217;-60
2022/11/04 04:58:33;;;;;;;19.70;13.37;;;;;;;11.09;100.00;94454.88;5034145;28;20194;-61
2022/11/04 05:00:58;;;;;;;22.33;12.87;;;;;;;11.08;100.00;94466.78;5034419;28;20196;-60
2022/11/04 05:03:24;;;;;;;25.60;14.97;;;;;;;11.31;100.00;94469.81;5052175;28;20254;-61
2022/11/04 05:05:49;;;;;;;18.93;13.33;;;;;;;11.15;100.00;94467.81;5051980;28;20217;-61
2022/11/04 05:08:14;;;;;;;23.33;13.67;;;;;;;11.13;100.00;94461.28;5034157;28;20196;-60
2022/11/04 05:10:40;;;;;;;24.03;13.80;;;;;;;11.46;100.00;94478.59;5051977;28;20264;-59
2022/11/04 05:15:50;;;;;;;19.40;12.80;;;;;;;11.15;100.00;94478.00;5052065;28;20291;-61
2022/11/04 05:18:16;;;;;;;22.00;13.37;;;;;;;11.13;100.00;94479.88;5051638;28;20185;-61
2022/11/04 05:20:42;;;;;;;26.27;13.93;;;;;;;11.15;100.00;94490.72;5051470;28;20217;-61
2022/11/04 05:23:10;;;;;;;25.60;15.03;;;;;;;10.81;100.00;94482.75;5051887;28;20212;-61
2022/11/04 05:25:38;;;;;;;22.70;13.47;;;;;;;10.89;100.00;94494.78;5051579;28;20688;-61
2022/11/04 05:28:04;;;;;;;21.40;12.80;;;;;;;10.98;100.00;94504.16;5051938;28;20189;-60
2022/11/04 05:30:30;;;;;;;22.43;12.50;;;;;;;11.04;100.00;94493.44;5051576;28;20209;-60
2022/11/04 05:32:55;;;;;;;21.90;12.50;;;;;;;11.23;100.00;94506.09;5051582;28;20227;-61
2022/11/04 05:35:20;;;;;;;19.53;11.83;;;;;;;11.14;100.00;94509.47;5051480;28;20224;-62
2022/11/04 05:37:46;;;;;;;26.93;13.43;;;;;;;11.03;100.00;94484.19;5051564;28;20579;-61
2022/11/04 05:40:11;;;;;;;24.37;13.07;;;;;;;10.82;100.00;94497.09;5051391;28;20217;-62
2022/11/04 05:42:37;;;;;;;24.77;14.30;;;;;;;11.02;100.00;94518.19;5051567;28;20569;-61
2022/11/04 05:45:04;;;;;;;25.27;14.23;;;;;;;11.17;100.00;94516.81;5051302;28;20288;-62
2022/11/04 05:47:29;;;;;;;24.20;13.47;;;;;;;11.08;100.00;94548.19;5051124;28;20276;-61
2022/11/04 05:49:55;;;;;;;24.60;12.97;;;;;;;10.92;100.00;94545.38;5051024;28;20263;-63
2022/11/04 05:52:20;;;;;;;21.30;13.10;;;;;;;10.82;100.00;94542.03;5051287;28;20214;-62
2022/11/04 05:54:46;;;;;;;24.53;13.37;;;;;;;10.68;100.00;94527.19;5051015;28;20211;-62
2022/11/04 05:57:11;;;;;;;23.93;13.87;;;;;;;10.83;100.00;94530.91;5051407;28;20178;-61
2022/11/04 05:59:37;;;;;;;26.37;14.27;;;;;;;10.77;100.00;94534.81;5050999;28;20209;-61
2022/11/04 06:02:02;;;;;;;23.53;13.60;;;;;;;10.91;100.00;94541.22;5033505;28;20323;-59
2022/11/04 06:04:28;;;;;;;22.50;13.10;;;;;;;10.85;100.00;94549.38;5051007;28;20210;-59
2022/11/04 06:06:53;;;;;;;19.60;12.80;;;;;;;11.08;100.00;94563.44;5051140;28;20196;-61
2022/11/04 06:09:18;;;;;;;26.63;14.07;;;;;;;10.90;100.00;94542.19;5050624;28;20217;-60
2022/11/04 06:11:44;;;;;;;26.13;14.77;;;;;;;10.88;100.00;94528.78;5050793;28;20264;-60
2022/11/04 06:14:10;;;;;;;24.80;14.40;;;;;;;11.40;100.00;94533.41;5050679;28;20198;-60
2022/11/04 06:16:35;;;;;;;30.20;14.43;;;;;;;11.27;100.00;94558.31;5050707;28;20174;-60
2022/11/04 06:19:01;;;;;;;23.13;14.13;;;;;;;11.29;100.00;94551.34;5050759;28;20687;-60
2022/11/04 06:21:30;;;;;;;20.27;14.37;;;;;;;11.50;100.00;94572.38;5050959;28;20185;-60
2022/11/04 06:23:57;;;;;;;27.43;14.20;;;;;;;11.38;100.00;94570.09;5050346;28;20233;-60
2022/11/04 06:26:24;;;;;;;22.53;14.27;;;;;;;11.67;100.00;94581.06;5050391;28;20217;-62
2022/11/04 06:28:49;;;;;;;27.27;13.63;;;;;;;11.77;100.00;94582.66;5050745;28;20190;-63
2022/11/04 06:31:15;;;;;;;26.23;15.93;;;;;;;11.82;100.00;94586.53;5050642;28;20203;-63
2022/11/04 06:33:41;;;;;;;31.57;15.17;;;;;;;12.00;99.20;94605.22;5050721;28;20193;-62
2022/11/04 06:36:10;;;;;;;30.93;15.00;;;;;;;12.08;98.51;94610.44;5050600;28;20617;-60
2022/11/04 06:38:36;;;;;;;24.43;14.87;;;;;;;12.11;98.13;94602.50;5032664;28;20763;-62
2022/11/04 06:41:03;;;;;;;24.40;14.23;;;;;;;12.16;97.57;94602.91;5050684;28;20186;-62
2022/11/04 06:43:29;;;;;;;27.27;13.97;;;;;;;12.37;97.03;94606.00;5050551;28;20383;-60
2022/11/04 06:46:00;;;;;;;26.50;16.70;;;;;;;12.13;96.94;94613.34;5050433;28;20288;-60
2022/11/04 06:48:29;;;;;;;26.90;15.97;;;;;;;12.12;96.58;94599.03;5050686;28;20265;-60
2022/11/04 06:50:56;;;;;;;29.20;16.93;;;;;;;12.08;97.27;94602.78;5050511;28;20217;-62
2022/11/04 06:53:21;;;;;;;30.27;15.83;;;;;;;12.12;97.47;94588.81;5050563;28;20664;-61
2022/11/04 06:55:46;;;;;;;26.67;16.00;;;;;;;12.22;97.38;94592.13;5050237;28;20293;-61
2022/11/04 06:58:12;;;;;;;27.10;16.83;;;;;;;12.00;98.71;94572.13;5050287;28;20260;-61
2022/11/04 07:00:37;;;;;;;31.63;17.27;;;;;;;12.34;96.29;94601.97;5050350;28;20729;-60
2022/11/04 07:03:02;;;;;;;31.83;16.67;;;;;;;12.50;95.26;94614.91;5050282;28;20177;-58
2022/11/04 07:05:28;;;;;;;30.57;17.33;;;;;;;12.51;95.05;94623.38;5049814;28;20275;-58
2022/11/04 07:07:54;;;;;;;26.87;15.67;;;;;;;12.45;94.46;94618.84;5050416;28;20182;-60
2022/11/04 07:10:19;;;;;;;26.90;16.53;;;;;;;12.48;95.29;94606.59;5049925;28;20220;-58
2022/11/04 07:12:45;;;;;;;28.50;17.23;;;;;;;12.76;94.39;94627.81;5050252;28;20181;-59
2022/11/04 07:15:10;;;;;;;32.63;17.90;;;;;;;12.93;93.60;94621.91;5032214;28;20224;-59
2022/11/04 07:17:35;;;;;;;33.23;18.00;;;;;;;13.08;92.93;94633.25;5050196;28;20271;-63
2022/11/04 07:20:04;;;;;;;35.50;18.07;;;;;;;13.13;93.74;94612.41;5049849;28;20209;-62
2022/11/04 07:22:29;;;;;;;30.40;18.13;;;;;;;13.51;92.40;94641.94;5050080;28;20186;-58
2022/11/04 07:24:55;;;;;;;35.15;18.15;;;;;;;13.85;90.17;94655.59;5032049;28;20220;-59
2022/11/04 07:27:20;;;;;;;31.40;19.50;;;;;;;14.16;87.30;94710.41;5050153;28;20659;-61
2022/11/04 07:29:46;;;;;;;33.05;18.55;;;;;;;14.27;86.34;94675.19;5049825;28;20236;-61
2022/11/04 07:32:11;;;;;;;33.10;17.95;;;;;;;14.45;85.08;94698.16;5049935;28;20624;-61
2022/11/04 07:34:37;;;;;;;35.35;19.15;;;;;;;14.50;85.05;94688.31;5049827;28;20746;-61
2022/11/04 07:37:02;;;;;;;31.97;17.90;;;;;;;14.73;82.82;94729.47;5051221;28;20186;-62
2022/11/04 07:39:27;;;;;;;38.78;18.95;;;;;;;14.75;83.00;94705.34;5053149;28;20213;-59
2022/11/04 07:41:53;;;;;;;26.20;16.92;;;;;;;14.79;82.94;94695.59;5053329;28;20239;-61
2022/11/04 07:47:10;;;;;;;29.50;18.02;;;;;;;15.07;81.92;94694.41;5504104;22;20953;-61
2022/11/04 07:49:36;;;;;;;24.83;17.52;;;;;;;15.26;80.29;94729.19;5033335;28;20198;-62
2022/11/04 07:52:01;;;;;;;28.73;17.70;;;;;;;15.48;79.49;94744.00;5011984;28;20669;-62
2022/11/04 07:54:27;;;;;;;27.67;18.15;;;;;;;15.55;79.13;94735.56;5013703;28;20724;-61
2022/11/04 07:56:53;;;;;;;27.40;17.45;;;;;;;15.94;78.33;94740.84;5013276;28;20245;-62
2022/11/04 07:59:18;;;;;;;32.97;18.08;;;;;;;15.95;76.60;94763.81;5013581;28;20179;-63
2022/11/04 08:01:44;;;;;;;25.50;16.58;;;;;;;16.41;74.15;94825.69;5013241;28;20203;-62
2022/11/04 08:04:10;;;;;;;27.77;17.42;;;;;;;16.56;74.17;94783.03;5013411;28;20266;-61
2022/11/04 08:06:35;;;;;;;29.73;17.25;;;;;;;16.90;72.33;94834.16;4995457;28;20618;-60
2022/11/04 08:09:01;;;;;;;25.65;16.83;;;;;;;17.11;71.04;94834.44;5013448;28;20183;-60
2022/11/04 08:11:27;;;;;;;31.90;17.42;;;;;;;17.28;70.51;94834.22;5013234;28;20206;-62
2022/11/04 08:13:54;;;;;;;29.23;18.15;;;;;;;17.51;68.37;94857.47;5013676;28;20179;-60
2022/11/04 08:16:22;;;;;;;30.38;18.30;;;;;;;17.53;67.49;94855.53;5013008;28;20210;-61
2022/11/04 08:18:51;;;;;;;27.17;16.65;;;;;;;17.67;67.60;94848.88;5013467;28;20187;-60
2022/11/04 08:21:17;;;;;;;32.67;17.98;;;;;;;17.84;67.14;94845.25;5013034;28;20214;-63
2022/11/04 08:23:44;;;;;;;25.58;17.70;;;;;;;17.84;67.05;94843.47;5013229;28;20214;-62
2022/11/04 08:26:13;;;;;;;27.20;16.90;;;;;;;17.99;66.50;94841.00;5012671;28;20685;-63
2022/11/04 08:28:39;;;;;;;27.50;17.48;;;;;;;18.07;66.27;94834.03;5012766;28;20199;-63
2022/11/04 08:31:13;;;;;;;29.17;16.63;;;;;;;18.42;64.34;94869.47;5012888;28;20711;-62
2022/11/04 08:33:39;;;;;;;24.83;16.52;;;;;;;18.57;62.67;94897.09;5012955;28;20213;-63
2022/11/04 08:36:30;;;;;;;29.17;15.98;;;;;;;18.65;61.50;94930.50;4995121;28;20289;-61
2022/11/04 08:38:56;;;;;;;25.13;16.60;;;;;;;18.62;61.59;94902.53;5013336;28;20190;-60
2022/11/04 08:41:25;;;;;;;29.08;17.27;;;;;;;18.73;60.70;94915.78;5012661;28;20210;-60
2022/11/04 08:43:51;;;;;;;26.17;17.58;;;;;;;18.54;62.08;94872.50;5012926;28;20199;-62
2022/11/04 08:46:17;;;;;;;26.45;16.05;;;;;;;18.86;61.26;94881.72;5012499;28;20221;-62
2022/11/04 08:48:43;;;;;;;26.67;16.80;;;;;;;18.56;62.39;94851.72;5012271;28;20214;-61
2022/11/04 08:51:18;;;;;;;30.85;18.10;;;;;;;19.07;59.34;94926.47;5012490;28;20246;-61
2022/11/04 08:53:44;;;;;;;27.85;15.98;;;;;;;19.03;59.02;94904.59;5012416;28;20179;-61
2022/11/04 08:56:31;;;;;;;26.55;17.65;;;;;;;19.16;59.04;94911.72;5012517;28;20261;-60
2022/11/04 08:58:58;;;;;;;25.85;16.60;;;;;;;19.51;57.73;94929.16;4994864;28;20274;-62
2022/11/04 09:01:25;;;;;;;28.13;17.20;;;;;;;19.86;57.04;94948.25;5012465;28;20211;-63
2022/11/04 09:03:51;;;;;;;27.35;17.80;;;;;;;19.74;56.11;94965.16;5012611;28;20681;-63
2022/11/04 09:06:21;;;;;;;30.98;17.55;;;;;;;19.95;56.37;94950.56;5012297;28;20245;-64
2022/11/04 09:08:47;;;;;;;29.58;17.45;;;;;;;19.89;57.00;94911.78;5012523;28;20666;-63
2022/11/04 09:11:15;;;;;;;25.17;16.58;;;;;;;19.91;57.26;94900.31;5012150;28;20211;-62
2022/11/04 09:13:41;;;;;;;24.85;16.48;;;;;;;20.51;56.44;94932.75;5012286;28;20408;-61
2022/11/04 09:16:09;;;;;;;31.50;19.05;;;;;;;21.01;54.25;94975.78;5012259;28;20745;-62
2022/11/04 09:18:34;;;;;;;27.52;17.42;;;;;;;21.36;53.42;94991.25;5012157;28;20639;-60
2022/11/04 09:21:01;;;;;;;28.85;17.75;;;;;;;21.63;53.07;94979.28;5011900;28;20277;-59
2022/11/04 09:23:27;;;;;;;32.75;16.75;;;;;;;21.77;52.04;95010.22;5011975;28;20195;-61
2022/11/04 09:25:55;;;;;;;22.08;16.30;;;;;;;22.11;50.19;95045.75;5011857;28;20595;-61
2022/11/04 09:28:21;;;;;;;31.95;16.75;;;;;;;21.80;49.98;95039.31;5011881;28;20202;-62
2022/11/04 09:30:47;;;;;;;21.40;15.63;;;;;;;22.03;48.88;95069.22;5012206;28;20187;-60
2022/11/04 09:33:12;;;;;;;32.00;16.20;;;;;;;21.90;49.43;95019.13;5019006;22;20230;-60
2022/11/04 09:35:38;;;;;;;27.83;16.92;;;;;;;21.93;49.09;95024.72;5012146;28;20226;-61
2022/11/04 09:38:03;;;;;;;22.55;15.32;;;;;;;22.01;49.08;95005.63;5011651;28;20218;-61
2022/11/04 09:40:29;;;;;;;21.88;15.38;;;;;;;22.18;48.33;95032.84;5011898;28;20566;-60
2022/11/04 09:43:19;;;;;;;27.05;15.32;;;;;;;22.29;47.83;95029.69;5011885;28;20207;-63
2022/11/04 09:45:45;;;;;;;26.35;15.02;;;;;;;22.16;48.62;94995.97;5011560;28;20222;-61
2022/11/04 09:48:27;;;;;;;29.15;14.88;;;;;;;22.21;48.94;94980.63;5011966;28;20191;-61
2022/11/04 09:50:56;;;;;;;25.10;16.38;;;;;;;22.73;48.02;94999.00;5011578;28;20202;-63
2022/11/04 09:53:29;;;;;;;28.30;16.67;;;;;;;22.92;47.91;95000.84;5011527;28;20179;-63
2022/11/04 09:55:59;;;;;;;28.95;16.45;;;;;;;23.06;46.69;95015.44;5011501;28;20653;-61
2022/11/04 09:58:24;;;;;;;33.05;17.58;;;;;;;23.17;46.81;95004.44;5011539;28;20244;-62
2022/11/04 10:01:07;;;;;;;33.00;17.52;;;;;;;23.58;45.80;95032.06;5011070;28;20676;-62
2022/11/04 10:03:51;;;;;;;23.55;15.75;;;;;;;23.23;45.06;95047.78;5010254;28;20214;-60
2022/11/04 10:06:42;;;;;;;25.15;16.92;;;;;;;23.60;44.95;95040.44;5010093;28;20322;-61
2022/11/04 10:09:12;;;;;;;34.15;17.73;;;;;;;23.70;43.83;95062.41;5011516;28;20187;-61
2022/11/04 10:12:00;;;;;;;22.10;15.50;;;;;;;23.51;44.05;95036.47;5011394;28;20210;-61
2022/11/04 10:14:25;;;;;;;31.05;18.98;;;;;;;23.67;44.29;95042.06;5011619;28;20191;-61
2022/11/04 10:17:12;;;;;;;26.80;16.35;;;;;;;23.86;43.68;95071.59;5011309;28;20207;-61
2022/11/04 10:19:54;;;;;;;29.45;15.13;;;;;;;23.97;43.30;95066.59;5011575;28;20195;-62
2022/11/04 10:22:42;;;;;;;23.27;14.90;;;;;;;23.88;43.75;95020.25;5011320;28;20700;-62
2022/11/04 10:25:12;;;;;;;23.50;15.48;;;;;;;23.66;44.07;94992.91;5011238;28;20325;-62
2022/11/04 10:27:43;;;;;;;20.55;14.88;;;;;;;23.84;44.34;94990.47;5011157;28;20219;-61
2022/11/04 10:30:18;;;;;;;22.33;14.60;;;;;;;23.33;44.86;94956.59;5011287;28;20723;-60
2022/11/04 10:33:11;;;;;;;24.38;13.63;;;;;;;23.72;43.89;94992.09;5011168;28;20217;-60
2022/11/04 10:35:45;;;;;;;23.50;13.60;;;;;;;23.55;44.21;94975.34;5011172;28;20279;-61
2022/11/04 10:38:42;;;;;;;26.33;15.38;;;;;;;23.28;45.19;94913.06;5011223;28;20190;-61
2022/11/04 10:41:36;;;;;;;22.90;13.80;;;;;;;23.40;44.50;94931.44;5011290;28;20226;-61
2022/11/04 10:44:07;;;;;;;24.63;13.52;;;;;;;23.53;44.49;94912.47;5011217;28;20195;-63
2022/11/04 10:46:36;;;;;;;24.00;14.40;;;;;;;23.69;45.08;94891.25;5009506;28;20250;-64
2022/11/04 10:49:17;;;;;;;25.10;14.15;;;;;;;23.66;44.29;94921.00;5011035;28;20198;-63
2022/11/04 10:51:44;;;;;;;23.33;15.15;;;;;;;23.21;44.49;94914.84;5010771;28;20218;-64
2022/11/04 10:54:10;;;;;;;26.77;12.98;;;;;;;23.09;45.82;94843.81;5011247;28;20682;-61
2022/11/04 10:56:46;;;;;;;23.10;13.45;;;;;;;23.29;44.33;94887.91;5009604;28;20214;-61
2022/11/04 10:59:41;;;;;;;21.65;13.85;;;;;;;23.50;44.19;94905.06;5011240;28;20649;-59
2022/11/04 11:02:06;;;;;;;21.42;14.50;;;;;;;23.72;43.39;94914.19;5009344;28;20211;-61
2022/11/04 11:04:34;;;;;;;22.73;12.68;;;;;;;23.67;44.25;94896.66;5010494;28;20229;-60
2022/11/04 11:07:03;;;;;;;24.83;13.68;;;;;;;23.27;43.12;94921.06;5009313;28;20230;-60
2022/11/04 11:09:32;;;;;;;21.52;13.45;;;;;;;22.75;44.64;94825.88;5010779;28;20187;-62
2022/11/04 11:12:00;;;;;;;20.23;13.35;;;;;;;22.70;45.35;94792.00;5012022;28;20206;-64
2022/11/04 11:14:29;;;;;;;22.00;14.18;;;;;;;22.99;45.40;94803.72;5014163;28;20187;-61
2022/11/04 11:16:57;;;;;;;19.73;13.65;;;;;;;23.22;44.97;94814.47;5013863;28;20218;-62
2022/11/04 11:19:24;;;;;;;21.63;13.32;;;;;;;23.14;44.43;94825.84;5013873;28;20746;-60
2022/11/04 11:21:54;;;;;;;25.08;13.23;;;;;;;23.16;44.99;94810.88;5013945;28;20681;-60
2022/11/04 11:24:26;;;;;;;21.17;12.15;;;;;;;23.42;43.28;94872.34;5013971;28;20186;-59
2022/11/04 11:27:10;;;;;;;20.42;12.23;;;;;;;23.39;42.79;94884.94;5013709;28;20242;-60
2022/11/04 11:29:39;;;;;;;22.13;11.93;;;;;;;23.20;42.82;94886.50;5014270;28;20191;-61
2022/11/04 11:32:18;;;;;;;26.45;12.60;;;;;;;22.98;43.79;94815.91;5013636;28;20206;-59
2022/11/04 11:34:46;;;;;;;22.50;11.88;;;;;;;22.83;44.84;94770.44;5013910;28;20194;-61
2022/11/04 11:37:23;;;;;;;21.55;12.15;;;;;;;22.94;44.89;94749.88;5012514;28;20230;-59
2022/11/04 11:39:49;;;;;;;20.52;12.30;;;;;;;22.99;46.14;94705.97;5012388;28;20221;-63
2022/11/04 11:42:17;;;;;;;18.65;10.88;;;;;;;23.08;44.33;94767.00;5013590;28;20215;-61
2022/11/04 11:44:54;;;;;;;23.08;12.60;;;;;;;22.93;45.08;94737.91;5012295;28;20225;-60
2022/11/04 11:47:21;;;;;;;20.75;11.73;;;;;;;23.21;44.39;94763.59;5013474;28;20715;-60
2022/11/04 11:50:12;;;;;;;18.77;11.52;;;;;;;23.41;43.68;94781.72;5013777;28;20183;-63
2022/11/04 11:52:39;;;;;;;19.48;10.93;;;;;;;23.60;43.71;94789.41;5013669;28;20595;-62
2022/11/04 11:55:16;;;;;;;19.63;11.75;;;;;;;23.55;43.74;94781.47;5013521;28;20180;-61
2022/11/04 11:57:45;;;;;;;20.83;12.48;;;;;;;23.08;44.38;94735.88;5013659;28;20279;-61
2022/11/04 12:00:15;;;;;;;22.13;11.43;;;;;;;22.84;44.47;94731.34;5013153;28;20186;-60
2022/11/04 12:02:51;;;;;;;21.02;11.15;;;;;;;22.68;44.15;94739.56;5011980;28;20320;-61
2022/11/04 12:05:21;;;;;;;18.63;10.95;;;;;;;22.63;44.25;94716.03;5013422;28;20206;-60
2022/11/04 12:08:00;;;;;;;22.38;11.70;;;;;;;22.65;45.48;94662.19;5013815;28;20211;-61